Barnstable Municipal Boardman Polando Field
KHYA : now visible

Airfield :











YOU CAN JOIN US ON...

 
LOGIN :

Register | Disclaimer

   EN    FR    IT 

 









Legend :    VFR   Marginal VFR   IFR   Intensive IFR   Very Intensive IFR
Visi :
Ceiling :
>= 8 km
>= 3000ft
5 to 8 km
1000 to 3000 ft
1500m to 5 km
500 to 1000 ft
800 to 1500m
200 to 500 ft
< 800m
< 200 ft
Symbols :   Thunderstorms  Fog  Heavy snow  Heavy precipitations  Wind > 20 kt







- Airport Elevation : 54 ft
- IATA code : HYA


KHYA - Barnstable Municipal Boardman Polando Field

CURRENT METAR :
  • 191156Z 18007G14KT 10SM FEW075 14/08 A3014 RMK AO2 SLP207 T01390078 10139 20111 50006

EXPIRED METARs :
  • 191056Z 18006KT 10SM OVC095 12/08 A3015 RMK AO2 SLP209 T01220078
  • 190956Z 17005KT 10SM CLR 11/08 A3014 RMK AO2 SLP207 T01110078

TAF KHYA
Valid from the 19 at 12:00 until the 20 at 12:00 UTC


191121Z 1912/2012 18012KT P6SM SCT080
FM191500 18013G23KT P6SM SCT080
FM191800 19014G25KT P6SM BKN070
FM200100 20012G19KT P6SM BKN070
FM200500 20012G19KT 6SM BR BKN030
FM200700 20012KT 4SM BR OVC008
FM200900 21011KT 3SM -SHRA BR OVC008
KZBW FIR / North America



MET'MAP, your aeronautical weather chart ! - Copyright ORBIFLY December 2007 - Disclaimer

ORBIFLY MET'MAP TEAM :

Programming & Development : Alexandra Zaïnal
Concept & Development : Baudouin d'Aumeries
Co-Development & Prog : Marc-Olivier Méhu
Technical & hardware support : Manuel Goepfert

Contact : metmap@orbifly.com




SOURCES & CREDITS :

   NOAA       Earth
Advisory